Aeroporto :
LOGIN :

Iscrizione | Disclaimer

   EN    FR    IT 

 










Sommario :    VFR   VFR Marginale   IFR   IFR Intensivo   IFR Molto Intensivo
Visibilità : 
Base nubi : 
>= 8 km
>= 3000ft
5 / 8 km
1000 / 3000 ft
1500m / 5 km
500 / 1000 ft
800 / 1500m
200 / 500 ft
< 800m
< 200 ft
Simboli :   Temporali  Nebbia  Neve Forte  Precipitazioni Forti  Vento > 20 kt
SIGMETs :   Varie  Temporali  Ghiacco  Turbolenza  Onda orograficha  Ceneri Vulcaniche







- Altitudine del aeroporto : 1416 ft
- Codice IATA : ZRH


LSZH - Zurich

ULTIMO METAR :
  • 220250Z VRB01KT CAVOK 05/02 Q1011 NOSIG

METARs OBSOLETI :
  • 220220Z VRB01KT CAVOK 06/03 Q1011 NOSIG
  • 220150Z VRB01KT CAVOK 07/04 Q1012 NOSIG
  • 220120Z VRB01KT CAVOK 06/02 Q1012 NOSIG
  • 220050Z VRB02KT CAVOK 08/03 Q1012 NOSIG

TAF TAF LSZH
Valido dal 22 a 03 ore il 23 a 09 ore UTC


220225Z 2203/2309 VRB03KT CAVOK TX22/2215Z TN05/2204Z TN06/2304Z
BECMG 2207/2210 06007KT
TEMPO 2210/2218 08010KT
PROB40 2216/2219 15007KT
BECMG 2219/2222 VRB03KT
BECMG 2307/2309 06006KT
ATIS : +41 43 816 2295 (DEP) +41 43 816 2294 (ARR)
Nessun NOTAM noto per questo aeroporto.



MetMap, La meteo Aeronautica in un colpo d'occhio ! - Copyright ORBIFLY Dicembre 2007 - Disclaimer

ORBIFLY MET'MAP TEAM :

Programmazione e sviluppo : Alexandra Zaïnal
Concezione e sviluppo : Baudouin d'Aumeries
Co-Programmazione e sviluppo : Marc-Olivier Méhu
Supporto tecnico e logistico : Manuel Goepfert
Aiuto per la traduzione : Arnaldo La Scala

Contatto : metmap@orbifly.com




FONTI E CREDITI :

   NOAA